sensor_id;sensor_type;location;lat;lon;timestamp;P1;durP1;ratioP1;P2;durP2;ratioP2
46745;SDS011;32493;50.514;9.678;2022-10-13T00:01:53;32.72;;;15.32;;
46745;SDS011;32493;50.514;9.678;2022-10-13T00:03:58;33.83;;;14.43;;
46745;SDS011;32493;50.514;9.678;2022-10-13T00:06:04;37.67;;;14.48;;
46745;SDS011;32493;50.514;9.678;2022-10-13T00:08:12;28.38;;;13.05;;
46745;SDS011;32493;50.514;9.678;2022-10-13T00:12:25;25.15;;;12.13;;
46745;SDS011;32493;50.514;9.678;2022-10-13T00:14:30;27.13;;;13.07;;
46745;SDS011;32493;50.514;9.678;2022-10-13T00:16:35;23.58;;;12.50;;
46745;SDS011;32493;50.514;9.678;2022-10-13T00:18:43;22.35;;;11.75;;
46745;SDS011;32493;50.514;9.678;2022-10-13T00:22:54;21.55;;;11.65;;
46745;SDS011;32493;50.514;9.678;2022-10-13T00:24:59;22.33;;;12.07;;
46745;SDS011;32493;50.514;9.678;2022-10-13T00:27:05;18.40;;;11.05;;
46745;SDS011;32493;50.514;9.678;2022-10-13T00:29:10;27.17;;;11.32;;
46745;SDS011;32493;50.514;9.678;2022-10-13T00:31:16;740.47;;;32.85;;
46745;SDS011;32493;50.514;9.678;2022-10-13T00:33:22;309.55;;;24.08;;
46745;SDS011;32493;50.514;9.678;2022-10-13T00:35:30;494.85;;;26.13;;
46745;SDS011;32493;50.514;9.678;2022-10-13T00:37:36;60.95;;;13.70;;
46745;SDS011;32493;50.514;9.678;2022-10-13T00:39:41;333.77;;;22.63;;
46745;SDS011;32493;50.514;9.678;2022-10-13T00:41:47;130.18;;;16.45;;
46745;SDS011;32493;50.514;9.678;2022-10-13T00:43:53;142.57;;;14.75;;
46745;SDS011;32493;50.514;9.678;2022-10-13T00:46:03;54.78;;;13.45;;
46745;SDS011;32493;50.514;9.678;2022-10-13T00:48:08;48.75;;;14.32;;
46745;SDS011;32493;50.514;9.678;2022-10-13T00:50:15;28.50;;;13.77;;
46745;SDS011;32493;50.514;9.678;2022-10-13T00:52:30;33.15;;;14.77;;
46745;SDS011;32493;50.514;9.678;2022-10-13T00:54:37;434.58;;;25.60;;
46745;SDS011;32493;50.514;9.678;2022-10-13T00:56:42;148.52;;;16.17;;
46745;SDS011;32493;50.514;9.678;2022-10-13T00:58:51;89.07;;;16.63;;
46745;SDS011;32493;50.514;9.678;2022-10-13T01:00:58;197.65;;;20.23;;
46745;SDS011;32493;50.514;9.678;2022-10-13T01:03:04;48.05;;;14.25;;
46745;SDS011;32493;50.514;9.678;2022-10-13T01:05:09;89.07;;;14.38;;
46745;SDS011;32493;50.514;9.678;2022-10-13T01:07:15;43.25;;;13.57;;
46745;SDS011;32493;50.514;9.678;2022-10-13T01:09:24;33.30;;;12.93;;
46745;SDS011;32493;50.514;9.678;2022-10-13T01:11:41;29.08;;;12.63;;
46745;SDS011;32493;50.514;9.678;2022-10-13T01:14:02;43.00;;;13.90;;
46745;SDS011;32493;50.514;9.678;2022-10-13T01:16:18;42.88;;;14.23;;
46745;SDS011;32493;50.514;9.678;2022-10-13T01:18:33;184.07;;;21.00;;
46745;SDS011;32493;50.514;9.678;2022-10-13T01:20:57;78.55;;;17.05;;
46745;SDS011;32493;50.514;9.678;2022-10-13T01:23:22;106.72;;;18.27;;
46745;SDS011;32493;50.514;9.678;2022-10-13T01:26:05;137.43;;;18.67;;
46745;SDS011;32493;50.514;9.678;2022-10-13T01:28:39;249.88;;;22.67;;
46745;SDS011;32493;50.514;9.678;2022-10-13T01:31:10;144.07;;;19.17;;
46745;SDS011;32493;50.514;9.678;2022-10-13T01:33:25;165.27;;;21.48;;
46745;SDS011;32493;50.514;9.678;2022-10-13T01:35:42;58.85;;;15.70;;
46745;SDS011;32493;50.514;9.678;2022-10-13T01:38:11;88.63;;;19.23;;
46745;SDS011;32493;50.514;9.678;2022-10-13T01:40:26;67.83;;;16.97;;
46745;SDS011;32493;50.514;9.678;2022-10-13T01:42:38;99.03;;;18.27;;
46745;SDS011;32493;50.514;9.678;2022-10-13T01:44:50;100.25;;;18.65;;
46745;SDS011;32493;50.514;9.678;2022-10-13T01:47:02;54.55;;;16.27;;
46745;SDS011;32493;50.514;9.678;2022-10-13T01:49:11;377.02;;;27.83;;
46745;SDS011;32493;50.514;9.678;2022-10-13T01:51:20;99.72;;;16.83;;
46745;SDS011;32493;50.514;9.678;2022-10-13T01:53:29;66.20;;;16.58;;
46745;SDS011;32493;50.514;9.678;2022-10-13T01:55:34;89.20;;;19.08;;
46745;SDS011;32493;50.514;9.678;2022-10-13T01:57:40;168.00;;;22.60;;
46745;SDS011;32493;50.514;9.678;2022-10-13T01:59:47;141.85;;;22.50;;
46745;SDS011;32493;50.514;9.678;2022-10-13T02:01:55;68.45;;;17.27;;
46745;SDS011;32493;50.514;9.678;2022-10-13T02:04:15;96.53;;;18.02;;
46745;SDS011;32493;50.514;9.678;2022-10-13T02:06:29;79.18;;;17.25;;
46745;SDS011;32493;50.514;9.678;2022-10-13T02:08:43;71.65;;;18.25;;
46745;SDS011;32493;50.514;9.678;2022-10-13T02:10:57;79.78;;;16.98;;
46745;SDS011;32493;50.514;9.678;2022-10-13T02:13:10;161.25;;;23.10;;
46745;SDS011;32493;50.514;9.678;2022-10-13T02:15:20;66.78;;;18.08;;
46745;SDS011;32493;50.514;9.678;2022-10-13T02:17:31;66.40;;;17.88;;
46745;SDS011;32493;50.514;9.678;2022-10-13T02:19:37;173.18;;;21.50;;
46745;SDS011;32493;50.514;9.678;2022-10-13T02:21:44;320.85;;;25.85;;
46745;SDS011;32493;50.514;9.678;2022-10-13T02:23:50;135.73;;;21.95;;
46745;SDS011;32493;50.514;9.678;2022-10-13T02:25:55;243.65;;;26.58;;
46745;SDS011;32493;50.514;9.678;2022-10-13T02:28:02;207.20;;;26.38;;
46745;SDS011;32493;50.514;9.678;2022-10-13T02:30:19;135.77;;;21.85;;
46745;SDS011;32493;50.514;9.678;2022-10-13T02:32:26;300.02;;;28.98;;
46745;SDS011;32493;50.514;9.678;2022-10-13T02:34:34;62.90;;;17.95;;
46745;SDS011;32493;50.514;9.678;2022-10-13T02:36:39;70.22;;;18.30;;
46745;SDS011;32493;50.514;9.678;2022-10-13T02:38:44;92.80;;;20.77;;
46745;SDS011;32493;50.514;9.678;2022-10-13T02:40:49;210.93;;;24.70;;
46745;SDS011;32493;50.514;9.678;2022-10-13T02:42:55;81.20;;;19.35;;
46745;SDS011;32493;50.514;9.678;2022-10-13T02:45:00;146.80;;;22.90;;
46745;SDS011;32493;50.514;9.678;2022-10-13T02:47:05;128.85;;;20.15;;
46745;SDS011;32493;50.514;9.678;2022-10-13T02:49:11;116.13;;;20.70;;
46745;SDS011;32493;50.514;9.678;2022-10-13T02:51:18;178.90;;;23.85;;
46745;SDS011;32493;50.514;9.678;2022-10-13T02:53:23;124.55;;;21.38;;
46745;SDS011;32493;50.514;9.678;2022-10-13T02:55:29;84.22;;;20.83;;
46745;SDS011;32493;50.514;9.678;2022-10-13T02:57:34;181.88;;;23.90;;
46745;SDS011;32493;50.514;9.678;2022-10-13T02:59:39;121.20;;;21.10;;
46745;SDS011;32493;50.514;9.678;2022-10-13T03:01:44;196.80;;;25.20;;
46745;SDS011;32493;50.514;9.678;2022-10-13T03:03:49;89.78;;;19.17;;
46745;SDS011;32493;50.514;9.678;2022-10-13T03:05:54;73.60;;;18.70;;
46745;SDS011;32493;50.514;9.678;2022-10-13T03:08:02;252.93;;;26.70;;
46745;SDS011;32493;50.514;9.678;2022-10-13T03:12:13;89.97;;;17.08;;
46745;SDS011;32493;50.514;9.678;2022-10-13T03:14:19;90.50;;;18.75;;
46745;SDS011;32493;50.514;9.678;2022-10-13T03:16:24;79.55;;;18.58;;
46745;SDS011;32493;50.514;9.678;2022-10-13T03:18:29;120.72;;;22.27;;
46745;SDS011;32493;50.514;9.678;2022-10-13T03:20:34;115.03;;;21.38;;
46745;SDS011;32493;50.514;9.678;2022-10-13T03:22:39;62.63;;;19.58;;
46745;SDS011;32493;50.514;9.678;2022-10-13T03:24:52;246.93;;;26.98;;
46745;SDS011;32493;50.514;9.678;2022-10-13T03:26:57;110.55;;;20.13;;
46745;SDS011;32493;50.514;9.678;2022-10-13T03:29:02;79.90;;;18.90;;
46745;SDS011;32493;50.514;9.678;2022-10-13T03:31:09;88.13;;;20.48;;
46745;SDS011;32493;50.514;9.678;2022-10-13T03:33:14;79.90;;;19.33;;
46745;SDS011;32493;50.514;9.678;2022-10-13T03:35:20;95.57;;;19.23;;
46745;SDS011;32493;50.514;9.678;2022-10-13T03:37:25;148.40;;;23.95;;
46745;SDS011;32493;50.514;9.678;2022-10-13T03:39:32;92.40;;;20.20;;
46745;SDS011;32493;50.514;9.678;2022-10-13T03:41:41;121.18;;;21.23;;
46745;SDS011;32493;50.514;9.678;2022-10-13T03:43:46;296.98;;;28.48;;
46745;SDS011;32493;50.514;9.678;2022-10-13T03:45:54;118.38;;;20.40;;
46745;SDS011;32493;50.514;9.678;2022-10-13T03:48:00;105.40;;;20.25;;
46745;SDS011;32493;50.514;9.678;2022-10-13T03:50:05;108.13;;;20.45;;
46745;SDS011;32493;50.514;9.678;2022-10-13T03:52:12;95.05;;;20.08;;
46745;SDS011;32493;50.514;9.678;2022-10-13T03:54:20;139.75;;;22.13;;
46745;SDS011;32493;50.514;9.678;2022-10-13T03:56:27;90.70;;;20.02;;
46745;SDS011;32493;50.514;9.678;2022-10-13T03:58:34;156.77;;;22.73;;
46745;SDS011;32493;50.514;9.678;2022-10-13T04:00:39;68.53;;;18.58;;
46745;SDS011;32493;50.514;9.678;2022-10-13T04:02:47;81.38;;;18.92;;
46745;SDS011;32493;50.514;9.678;2022-10-13T04:04:52;65.82;;;18.60;;
46745;SDS011;32493;50.514;9.678;2022-10-13T04:06:57;81.28;;;18.55;;
46745;SDS011;32493;50.514;9.678;2022-10-13T04:09:02;71.35;;;19.35;;
46745;SDS011;32493;50.514;9.678;2022-10-13T04:11:10;114.95;;;20.15;;
46745;SDS011;32493;50.514;9.678;2022-10-13T04:13:17;98.22;;;18.75;;
46745;SDS011;32493;50.514;9.678;2022-10-13T04:15:27;156.88;;;23.80;;
46745;SDS011;32493;50.514;9.678;2022-10-13T04:17:32;71.35;;;18.67;;
46745;SDS011;32493;50.514;9.678;2022-10-13T04:19:37;123.13;;;20.00;;
46745;SDS011;32493;50.514;9.678;2022-10-13T04:21:43;85.03;;;19.45;;
46745;SDS011;32493;50.514;9.678;2022-10-13T04:23:48;144.38;;;22.15;;
46745;SDS011;32493;50.514;9.678;2022-10-13T04:25:53;99.57;;;20.10;;
46745;SDS011;32493;50.514;9.678;2022-10-13T04:27:58;107.03;;;20.00;;
46745;SDS011;32493;50.514;9.678;2022-10-13T04:30:04;81.53;;;18.58;;
46745;SDS011;32493;50.514;9.678;2022-10-13T04:32:16;170.82;;;21.85;;
46745;SDS011;32493;50.514;9.678;2022-10-13T04:34:22;111.28;;;20.48;;
46745;SDS011;32493;50.514;9.678;2022-10-13T04:36:28;131.65;;;20.38;;
46745;SDS011;32493;50.514;9.678;2022-10-13T04:38:33;96.13;;;19.95;;
46745;SDS011;32493;50.514;9.678;2022-10-13T04:40:39;93.10;;;18.60;;
46745;SDS011;32493;50.514;9.678;2022-10-13T04:42:44;84.80;;;20.52;;
46745;SDS011;32493;50.514;9.678;2022-10-13T04:44:49;85.55;;;18.55;;
46745;SDS011;32493;50.514;9.678;2022-10-13T04:46:54;140.52;;;21.30;;
46745;SDS011;32493;50.514;9.678;2022-10-13T04:49:03;72.10;;;19.25;;
46745;SDS011;32493;50.514;9.678;2022-10-13T04:51:12;141.82;;;22.17;;
46745;SDS011;32493;50.514;9.678;2022-10-13T04:53:20;331.38;;;27.25;;
46745;SDS011;32493;50.514;9.678;2022-10-13T04:55:29;311.17;;;26.67;;
46745;SDS011;32493;50.514;9.678;2022-10-13T04:57:34;154.25;;;21.35;;
46745;SDS011;32493;50.514;9.678;2022-10-13T04:59:39;187.40;;;22.48;;
46745;SDS011;32493;50.514;9.678;2022-10-13T05:01:44;379.13;;;30.13;;
46745;SDS011;32493;50.514;9.678;2022-10-13T05:03:49;58.90;;;18.40;;
46745;SDS011;32493;50.514;9.678;2022-10-13T05:05:59;54.40;;;18.08;;
46745;SDS011;32493;50.514;9.678;2022-10-13T05:08:05;49.17;;;17.08;;
46745;SDS011;32493;50.514;9.678;2022-10-13T05:10:10;56.40;;;18.23;;
46745;SDS011;32493;50.514;9.678;2022-10-13T05:12:15;59.33;;;20.27;;
46745;SDS011;32493;50.514;9.678;2022-10-13T05:14:22;71.30;;;19.40;;
46745;SDS011;32493;50.514;9.678;2022-10-13T05:16:27;53.22;;;18.65;;
46745;SDS011;32493;50.514;9.678;2022-10-13T05:18:33;52.03;;;17.63;;
46745;SDS011;32493;50.514;9.678;2022-10-13T05:20:39;56.05;;;19.95;;
46745;SDS011;32493;50.514;9.678;2022-10-13T05:22:47;44.15;;;17.50;;
46745;SDS011;32493;50.514;9.678;2022-10-13T05:24:53;56.35;;;19.52;;
46745;SDS011;32493;50.514;9.678;2022-10-13T05:26:58;42.25;;;17.63;;
46745;SDS011;32493;50.514;9.678;2022-10-13T05:29:03;50.80;;;16.70;;
46745;SDS011;32493;50.514;9.678;2022-10-13T05:31:10;63.22;;;19.25;;
46745;SDS011;32493;50.514;9.678;2022-10-13T05:35:22;70.65;;;18.38;;
46745;SDS011;32493;50.514;9.678;2022-10-13T05:37:27;55.25;;;18.10;;
46745;SDS011;32493;50.514;9.678;2022-10-13T05:39:35;69.55;;;18.17;;
46745;SDS011;32493;50.514;9.678;2022-10-13T05:41:41;57.92;;;18.23;;
46745;SDS011;32493;50.514;9.678;2022-10-13T05:43:55;50.20;;;18.77;;
46745;SDS011;32493;50.514;9.678;2022-10-13T05:46:03;53.47;;;18.38;;
46745;SDS011;32493;50.514;9.678;2022-10-13T05:48:09;44.63;;;17.80;;
46745;SDS011;32493;50.514;9.678;2022-10-13T05:50:14;70.05;;;18.63;;
46745;SDS011;32493;50.514;9.678;2022-10-13T05:52:20;50.20;;;17.67;;
46745;SDS011;32493;50.514;9.678;2022-10-13T05:54:29;47.42;;;16.90;;
46745;SDS011;32493;50.514;9.678;2022-10-13T05:56:44;56.83;;;18.38;;
46745;SDS011;32493;50.514;9.678;2022-10-13T05:58:57;49.67;;;16.92;;
46745;SDS011;32493;50.514;9.678;2022-10-13T06:01:06;46.97;;;17.33;;
46745;SDS011;32493;50.514;9.678;2022-10-13T06:03:16;52.47;;;18.85;;
46745;SDS011;32493;50.514;9.678;2022-10-13T06:05:25;56.65;;;18.90;;
46745;SDS011;32493;50.514;9.678;2022-10-13T06:07:33;58.30;;;19.33;;
46745;SDS011;32493;50.514;9.678;2022-10-13T06:09:41;60.25;;;19.10;;
46745;SDS011;32493;50.514;9.678;2022-10-13T06:11:46;55.58;;;18.40;;
46745;SDS011;32493;50.514;9.678;2022-10-13T06:13:52;52.95;;;18.55;;
46745;SDS011;32493;50.514;9.678;2022-10-13T06:15:57;48.63;;;18.38;;
46745;SDS011;32493;50.514;9.678;2022-10-13T06:18:05;46.17;;;19.50;;
46745;SDS011;32493;50.514;9.678;2022-10-13T06:20:11;40.35;;;17.83;;
46745;SDS011;32493;50.514;9.678;2022-10-13T06:22:17;36.55;;;17.30;;
46745;SDS011;32493;50.514;9.678;2022-10-13T06:24:23;41.33;;;17.00;;
46745;SDS011;32493;50.514;9.678;2022-10-13T06:26:30;43.78;;;17.73;;
46745;SDS011;32493;50.514;9.678;2022-10-13T06:28:35;35.08;;;17.88;;
46745;SDS011;32493;50.514;9.678;2022-10-13T06:30:40;38.88;;;17.25;;
46745;SDS011;32493;50.514;9.678;2022-10-13T06:32:48;44.33;;;16.70;;
46745;SDS011;32493;50.514;9.678;2022-10-13T06:34:53;39.70;;;16.73;;
46745;SDS011;32493;50.514;9.678;2022-10-13T06:36:58;44.13;;;17.27;;
46745;SDS011;32493;50.514;9.678;2022-10-13T06:39:03;38.95;;;15.90;;
46745;SDS011;32493;50.514;9.678;2022-10-13T06:41:08;31.50;;;16.75;;
46745;SDS011;32493;50.514;9.678;2022-10-13T06:43:17;35.78;;;17.00;;
46745;SDS011;32493;50.514;9.678;2022-10-13T06:45:25;34.58;;;16.15;;
46745;SDS011;32493;50.514;9.678;2022-10-13T06:47:31;42.65;;;17.60;;
46745;SDS011;32493;50.514;9.678;2022-10-13T06:49:36;35.17;;;18.30;;
46745;SDS011;32493;50.514;9.678;2022-10-13T06:51:46;36.30;;;18.02;;
46745;SDS011;32493;50.514;9.678;2022-10-13T06:53:51;37.42;;;18.75;;
46745;SDS011;32493;50.514;9.678;2022-10-13T06:58:07;36.50;;;17.88;;
46745;SDS011;32493;50.514;9.678;2022-10-13T07:00:15;38.80;;;18.50;;
46745;SDS011;32493;50.514;9.678;2022-10-13T07:02:21;39.60;;;17.80;;
46745;SDS011;32493;50.514;9.678;2022-10-13T07:04:26;32.28;;;16.05;;
46745;SDS011;32493;50.514;9.678;2022-10-13T07:06:32;33.78;;;16.33;;
46745;SDS011;32493;50.514;9.678;2022-10-13T07:08:37;34.80;;;16.55;;
46745;SDS011;32493;50.514;9.678;2022-10-13T07:10:42;37.40;;;16.67;;
46745;SDS011;32493;50.514;9.678;2022-10-13T07:12:48;38.35;;;17.10;;
46745;SDS011;32493;50.514;9.678;2022-10-13T07:14:53;30.77;;;16.15;;
46745;SDS011;32493;50.514;9.678;2022-10-13T07:17:00;35.25;;;17.35;;
46745;SDS011;32493;50.514;9.678;2022-10-13T07:19:05;45.92;;;17.10;;
46745;SDS011;32493;50.514;9.678;2022-10-13T07:21:12;39.03;;;16.75;;
46745;SDS011;32493;50.514;9.678;2022-10-13T07:23:18;45.80;;;17.70;;
46745;SDS011;32493;50.514;9.678;2022-10-13T07:25:23;44.83;;;18.75;;
46745;SDS011;32493;50.514;9.678;2022-10-13T07:27:28;38.30;;;16.77;;
46745;SDS011;32493;50.514;9.678;2022-10-13T07:29:34;42.45;;;17.05;;
46745;SDS011;32493;50.514;9.678;2022-10-13T07:31:40;40.95;;;16.60;;
46745;SDS011;32493;50.514;9.678;2022-10-13T07:33:49;38.22;;;17.65;;
46745;SDS011;32493;50.514;9.678;2022-10-13T07:36:00;45.28;;;18.98;;
46745;SDS011;32493;50.514;9.678;2022-10-13T07:38:05;39.20;;;18.17;;
46745;SDS011;32493;50.514;9.678;2022-10-13T07:40:11;49.55;;;19.65;;
46745;SDS011;32493;50.514;9.678;2022-10-13T07:42:16;51.40;;;18.98;;
46745;SDS011;32493;50.514;9.678;2022-10-13T07:44:21;49.83;;;19.23;;
46745;SDS011;32493;50.514;9.678;2022-10-13T07:46:26;50.42;;;20.20;;
46745;SDS011;32493;50.514;9.678;2022-10-13T07:48:33;47.13;;;18.55;;
46745;SDS011;32493;50.514;9.678;2022-10-13T07:50:41;47.63;;;19.35;;
46745;SDS011;32493;50.514;9.678;2022-10-13T07:52:46;48.00;;;19.20;;
46745;SDS011;32493;50.514;9.678;2022-10-13T07:54:52;46.00;;;18.67;;
46745;SDS011;32493;50.514;9.678;2022-10-13T07:56:57;50.33;;;18.70;;
46745;SDS011;32493;50.514;9.678;2022-10-13T07:59:02;46.90;;;18.88;;
46745;SDS011;32493;50.514;9.678;2022-10-13T08:01:07;41.33;;;17.63;;
46745;SDS011;32493;50.514;9.678;2022-10-13T08:03:13;45.22;;;17.90;;
46745;SDS011;32493;50.514;9.678;2022-10-13T08:05:20;40.20;;;17.63;;
46745;SDS011;32493;50.514;9.678;2022-10-13T08:07:27;41.72;;;18.40;;
46745;SDS011;32493;50.514;9.678;2022-10-13T08:09:33;44.92;;;18.17;;
46745;SDS011;32493;50.514;9.678;2022-10-13T08:11:38;51.13;;;19.02;;
46745;SDS011;32493;50.514;9.678;2022-10-13T08:13:47;48.15;;;18.85;;
46745;SDS011;32493;50.514;9.678;2022-10-13T08:15:58;46.17;;;19.48;;
46745;SDS011;32493;50.514;9.678;2022-10-13T08:18:04;46.70;;;19.38;;
46745;SDS011;32493;50.514;9.678;2022-10-13T08:20:09;42.95;;;18.70;;
46745;SDS011;32493;50.514;9.678;2022-10-13T08:22:15;40.42;;;17.73;;
46745;SDS011;32493;50.514;9.678;2022-10-13T08:24:22;40.70;;;19.15;;
46745;SDS011;32493;50.514;9.678;2022-10-13T08:26:27;35.53;;;17.80;;
46745;SDS011;32493;50.514;9.678;2022-10-13T08:28:33;37.92;;;18.48;;
46745;SDS011;32493;50.514;9.678;2022-10-13T08:30:38;36.60;;;17.60;;
46745;SDS011;32493;50.514;9.678;2022-10-13T08:32:43;33.38;;;17.60;;
46745;SDS011;32493;50.514;9.678;2022-10-13T08:34:48;41.28;;;18.35;;
46745;SDS011;32493;50.514;9.678;2022-10-13T08:36:53;27.83;;;16.35;;
46745;SDS011;32493;50.514;9.678;2022-10-13T08:39:00;29.38;;;17.77;;
46745;SDS011;32493;50.514;9.678;2022-10-13T08:41:13;29.60;;;15.82;;
46745;SDS011;32493;50.514;9.678;2022-10-13T08:43:24;26.45;;;16.05;;
46745;SDS011;32493;50.514;9.678;2022-10-13T08:45:30;32.80;;;15.40;;
46745;SDS011;32493;50.514;9.678;2022-10-13T08:47:43;26.35;;;15.52;;
46745;SDS011;32493;50.514;9.678;2022-10-13T08:49:52;25.08;;;16.33;;
46745;SDS011;32493;50.514;9.678;2022-10-13T08:52:02;23.33;;;14.93;;
46745;SDS011;32493;50.514;9.678;2022-10-13T08:54:09;24.65;;;15.32;;
46745;SDS011;32493;50.514;9.678;2022-10-13T08:56:20;26.20;;;14.85;;
46745;SDS011;32493;50.514;9.678;2022-10-13T08:58:30;25.20;;;14.95;;
46745;SDS011;32493;50.514;9.678;2022-10-13T09:00:38;24.13;;;14.40;;
46745;SDS011;32493;50.514;9.678;2022-10-13T09:02:44;24.40;;;14.90;;
46745;SDS011;32493;50.514;9.678;2022-10-13T09:04:51;24.38;;;13.60;;
46745;SDS011;32493;50.514;9.678;2022-10-13T09:06:57;20.02;;;13.23;;
46745;SDS011;32493;50.514;9.678;2022-10-13T09:09:11;23.00;;;12.90;;
46745;SDS011;32493;50.514;9.678;2022-10-13T09:11:22;22.42;;;13.95;;
46745;SDS011;32493;50.514;9.678;2022-10-13T09:13:31;21.35;;;12.88;;
46745;SDS011;32493;50.514;9.678;2022-10-13T09:15:41;24.65;;;14.38;;
46745;SDS011;32493;50.514;9.678;2022-10-13T09:18:06;22.02;;;13.68;;
46745;SDS011;32493;50.514;9.678;2022-10-13T09:20:17;20.77;;;12.88;;
46745;SDS011;32493;50.514;9.678;2022-10-13T09:22:26;18.00;;;12.15;;
46745;SDS011;32493;50.514;9.678;2022-10-13T09:24:34;17.65;;;12.27;;
46745;SDS011;32493;50.514;9.678;2022-10-13T09:26:42;19.63;;;10.90;;
46745;SDS011;32493;50.514;9.678;2022-10-13T09:28:50;17.30;;;10.82;;
46745;SDS011;32493;50.514;9.678;2022-10-13T09:31:00;20.02;;;11.00;;
46745;SDS011;32493;50.514;9.678;2022-10-13T09:33:16;21.33;;;10.82;;
46745;SDS011;32493;50.514;9.678;2022-10-13T09:35:27;16.90;;;10.35;;
46745;SDS011;32493;50.514;9.678;2022-10-13T09:37:35;17.70;;;11.25;;
46745;SDS011;32493;50.514;9.678;2022-10-13T09:39:40;19.73;;;11.73;;
46745;SDS011;32493;50.514;9.678;2022-10-13T09:41:47;18.35;;;10.93;;
46745;SDS011;32493;50.514;9.678;2022-10-13T09:43:56;19.27;;;11.15;;
46745;SDS011;32493;50.514;9.678;2022-10-13T09:46:10;20.83;;;12.50;;
46745;SDS011;32493;50.514;9.678;2022-10-13T09:48:24;18.77;;;10.85;;
46745;SDS011;32493;50.514;9.678;2022-10-13T09:50:33;17.15;;;10.80;;
46745;SDS011;32493;50.514;9.678;2022-10-13T09:52:39;19.20;;;10.77;;
46745;SDS011;32493;50.514;9.678;2022-10-13T09:54:46;16.92;;;10.70;;
46745;SDS011;32493;50.514;9.678;2022-10-13T09:56:56;18.23;;;11.27;;
46745;SDS011;32493;50.514;9.678;2022-10-13T09:59:09;16.83;;;9.98;;
46745;SDS011;32493;50.514;9.678;2022-10-13T10:01:21;17.25;;;10.32;;
46745;SDS011;32493;50.514;9.678;2022-10-13T10:03:31;18.70;;;11.38;;
46745;SDS011;32493;50.514;9.678;2022-10-13T10:05:43;15.95;;;10.70;;
46745;SDS011;32493;50.514;9.678;2022-10-13T10:07:55;19.08;;;11.27;;
46745;SDS011;32493;50.514;9.678;2022-10-13T10:10:09;14.50;;;9.98;;
46745;SDS011;32493;50.514;9.678;2022-10-13T10:12:28;19.38;;;10.32;;
46745;SDS011;32493;50.514;9.678;2022-10-13T10:14:38;14.40;;;9.23;;
46745;SDS011;32493;50.514;9.678;2022-10-13T10:16:45;18.85;;;9.80;;
46745;SDS011;32493;50.514;9.678;2022-10-13T10:18:59;14.82;;;9.30;;
46745;SDS011;32493;50.514;9.678;2022-10-13T10:21:10;13.68;;;9.20;;
46745;SDS011;32493;50.514;9.678;2022-10-13T10:23:28;19.23;;;10.65;;
46745;SDS011;32493;50.514;9.678;2022-10-13T10:25:44;15.23;;;9.70;;
46745;SDS011;32493;50.514;9.678;2022-10-13T10:28:02;14.68;;;9.73;;
46745;SDS011;32493;50.514;9.678;2022-10-13T10:30:36;14.48;;;8.43;;
46745;SDS011;32493;50.514;9.678;2022-10-13T10:32:48;13.57;;;8.38;;
46745;SDS011;32493;50.514;9.678;2022-10-13T10:34:59;17.63;;;8.98;;
46745;SDS011;32493;50.514;9.678;2022-10-13T10:37:18;16.00;;;8.75;;
46745;SDS011;32493;50.514;9.678;2022-10-13T10:39:35;12.63;;;8.00;;
46745;SDS011;32493;50.514;9.678;2022-10-13T10:41:46;14.88;;;9.35;;
46745;SDS011;32493;50.514;9.678;2022-10-13T10:44:02;18.55;;;8.57;;
46745;SDS011;32493;50.514;9.678;2022-10-13T10:46:14;14.70;;;9.05;;
46745;SDS011;32493;50.514;9.678;2022-10-13T10:48:24;12.55;;;8.70;;
46745;SDS011;32493;50.514;9.678;2022-10-13T10:50:38;15.57;;;9.10;;
46745;SDS011;32493;50.514;9.678;2022-10-13T10:52:47;20.27;;;9.45;;
46745;SDS011;32493;50.514;9.678;2022-10-13T10:55:01;16.85;;;8.63;;
46745;SDS011;32493;50.514;9.678;2022-10-13T10:57:21;17.77;;;9.15;;
46745;SDS011;32493;50.514;9.678;2022-10-13T10:59:44;13.55;;;8.30;;
46745;SDS011;32493;50.514;9.678;2022-10-13T11:02:05;14.65;;;9.40;;
46745;SDS011;32493;50.514;9.678;2022-10-13T11:04:33;15.20;;;8.90;;
46745;SDS011;32493;50.514;9.678;2022-10-13T11:06:44;18.33;;;9.40;;
46745;SDS011;32493;50.514;9.678;2022-10-13T11:08:49;14.70;;;9.50;;
46745;SDS011;32493;50.514;9.678;2022-10-13T11:13:48;12.15;;;8.93;;
46745;SDS011;32493;50.514;9.678;2022-10-13T11:15:58;15.43;;;9.20;;
46745;SDS011;32493;50.514;9.678;2022-10-13T11:18:53;15.13;;;9.07;;
46745;SDS011;32493;50.514;9.678;2022-10-13T11:21:06;13.82;;;8.75;;
46745;SDS011;32493;50.514;9.678;2022-10-13T11:23:30;15.52;;;9.88;;
46745;SDS011;32493;50.514;9.678;2022-10-13T11:25:39;16.20;;;9.02;;
46745;SDS011;32493;50.514;9.678;2022-10-13T11:27:46;15.80;;;9.20;;
46745;SDS011;32493;50.514;9.678;2022-10-13T11:29:52;14.98;;;9.07;;
46745;SDS011;32493;50.514;9.678;2022-10-13T11:32:02;13.77;;;8.40;;
46745;SDS011;32493;50.514;9.678;2022-10-13T11:34:19;11.88;;;8.77;;
46745;SDS011;32493;50.514;9.678;2022-10-13T11:36:43;14.82;;;8.75;;
46745;SDS011;32493;50.514;9.678;2022-10-13T11:39:01;17.08;;;8.65;;
46745;SDS011;32493;50.514;9.678;2022-10-13T11:41:34;17.02;;;8.73;;
46745;SDS011;32493;50.514;9.678;2022-10-13T11:43:47;15.60;;;9.20;;
46745;SDS011;32493;50.514;9.678;2022-10-13T11:46:02;19.67;;;9.85;;
46745;SDS011;32493;50.514;9.678;2022-10-13T11:51:28;17.58;;;9.32;;
46745;SDS011;32493;50.514;9.678;2022-10-13T11:53:47;13.05;;;8.55;;
46745;SDS011;32493;50.514;9.678;2022-10-13T11:56:03;13.00;;;9.25;;
46745;SDS011;32493;50.514;9.678;2022-10-13T11:58:22;14.68;;;9.10;;
46745;SDS011;32493;50.514;9.678;2022-10-13T12:00:29;17.38;;;9.32;;
46745;SDS011;32493;50.514;9.678;2022-10-13T12:02:35;13.95;;;9.00;;
46745;SDS011;32493;50.514;9.678;2022-10-13T12:05:06;19.50;;;9.82;;
46745;SDS011;32493;50.514;9.678;2022-10-13T12:07:25;16.70;;;9.50;;
46745;SDS011;32493;50.514;9.678;2022-10-13T12:09:39;15.52;;;9.90;;
46745;SDS011;32493;50.514;9.678;2022-10-13T12:11:57;14.82;;;10.02;;
46745;SDS011;32493;50.514;9.678;2022-10-13T12:14:15;15.82;;;9.27;;
46745;SDS011;32493;50.514;9.678;2022-10-13T12:16:25;13.95;;;9.15;;
46745;SDS011;32493;50.514;9.678;2022-10-13T12:18:32;13.50;;;8.70;;
46745;SDS011;32493;50.514;9.678;2022-10-13T12:20:44;13.95;;;8.38;;
46745;SDS011;32493;50.514;9.678;2022-10-13T12:22:56;12.00;;;7.88;;
46745;SDS011;32493;50.514;9.678;2022-10-13T12:25:02;14.38;;;8.30;;
46745;SDS011;32493;50.514;9.678;2022-10-13T12:27:10;12.38;;;7.35;;
46745;SDS011;32493;50.514;9.678;2022-10-13T12:29:25;18.00;;;8.85;;
46745;SDS011;32493;50.514;9.678;2022-10-13T12:31:38;12.45;;;7.95;;
46745;SDS011;32493;50.514;9.678;2022-10-13T12:33:50;15.10;;;8.15;;
46745;SDS011;32493;50.514;9.678;2022-10-13T12:36:15;18.33;;;8.55;;
46745;SDS011;32493;50.514;9.678;2022-10-13T12:38:23;15.25;;;8.30;;
46745;SDS011;32493;50.514;9.678;2022-10-13T12:40:28;12.05;;;7.65;;
46745;SDS011;32493;50.514;9.678;2022-10-13T12:42:34;15.80;;;7.68;;
46745;SDS011;32493;50.514;9.678;2022-10-13T12:44:41;13.73;;;7.65;;
46745;SDS011;32493;50.514;9.678;2022-10-13T12:46:47;11.95;;;7.45;;
46745;SDS011;32493;50.514;9.678;2022-10-13T12:51:10;12.32;;;7.30;;
46745;SDS011;32493;50.514;9.678;2022-10-13T12:53:24;14.10;;;8.13;;
46745;SDS011;32493;50.514;9.678;2022-10-13T12:55:32;15.77;;;7.63;;